Detall de PIREP

Printer-friendly versionPDF version

[2015/12/29 10:28:00]
Flight IATA:CT1004
Pilot Number:012
Company ICAO:CAT
Aircraft Type:B752/E
PAX:169
Aircraft Registration:PAX
Departing Airport: LDSP
Destination Airport: LIEA
Alternate Airport:LIEO
Online: VATSIM
Route:VELUG UZ924 MOPUV UY106 OKUNO UL5 MINKA
Flight Level:F320
No Slew and time accel
No pause
Crash detect
Detect pilot in Cockpit between each 30 and 45 minutes
10:28 Zero fuel Weight: 178873 Lbs, Fuel Weight: 19933 Lbs
10:28 VATSIM:LDSP 291000Z 00000KT CAVOK 11/08 Q1027 NOSIG
10:28 VATSIM:LIEA 290950Z VRB01KT CAVOK 14/09 Q1031
10:28 X-MAS CHARTER
10:37 Parking Brakes off
10:41 Take-off
10:41 Take off Weight: 198013 Lbs
10:41 Wind: 000º @ 000 Knots Heading: 232º
10:41 POS N43º 32´ 17´´ E016º 17´ 47´´
10:41 Flaps:2 at 188 Knots
10:41 Gear Up: 194 Knots
10:42 Flaps:1 at 208 Knots
10:43 Flaps:0 at 194 Knots
10:51 TOC
10:51 Fuel Weight: 15645 Lb
10:56 Wind:298º@008 Knots Heading: 241º Ground Speed: 453 Knots Altitude 32463 ft
11:11 Wind:205º@019 Knots Heading: 239º Ground Speed: 441 Knots Altitude 32490 ft
11:21 TOD
11:21 Fuel Weight: 11381 Lb
11:26 Wind:223º@019 Knots Heading: 248º Ground Speed: 374 Knots Altitude 21581 ft
11:41 Wind:241º@009 Knots Heading: 246º Ground Speed: 244 Knots Altitude 5629 ft
11:42 Flaps:1 at 209 Knots
11:43 Flaps:2 at 189 Knots
11:44 Flaps:3 at 164 Knots
11:44 Gear Down: 163 Knots
11:45 Flaps:4 at 147 Knots
11:45 Flaps:5 at 146 Knots
11:47 Flaps:6 at 140 Knots
11:49 TouchDown:Rate -272 ft/min Speed: 125 Knots
11:49 VATSIM:LIEA 291120Z 21005KT 170V250 CAVOK 16/09 Q1030
11:49 Land
11:49 Wind:192º@003 Knots
11:49 Heading: 203º
11:49 Flight Duration: 01:08
11:49 Landing Weight: 188144 Lbs
11:49 POS N40º 37´ 58´´ E008º 17´ 28´´
11:52 Parking brakes on
11:52 Block to Block Duration: 01:15
11:52 Final Fuel: 9043 Lbls
11:52 Spent Fuel: 10890 Lbls
11:52 Flight Length: 412 NM
11:52 TOD Land Length: 129 NM

Exportar CSV

Powered by Drupal - Modified by Danger4k